createdAt,value
2017-07-06T00:00:48.975Z,72.24
2017-07-06T00:01:49.015Z,72.14
2017-07-06T00:02:49.052Z,71.86
2017-07-06T00:03:49.093Z,72.33
2017-07-06T00:04:49.132Z,72.05
2017-07-06T00:05:49.168Z,72.24
2017-07-06T00:06:49.207Z,72.33
2017-07-06T00:07:49.245Z,72.24
2017-07-06T00:08:49.286Z,72.53
2017-07-06T00:09:49.325Z,72.24
2017-07-06T00:10:49.362Z,72.33
2017-07-06T00:11:49.402Z,72.33
2017-07-06T00:12:49.441Z,72.24
2017-07-06T00:13:49.482Z,72.24
2017-07-06T00:14:49.519Z,72.43
2017-07-06T00:15:49.560Z,72.53
2017-07-06T00:16:49.597Z,72.43
2017-07-06T00:17:49.635Z,72.33
2017-07-06T00:18:49.679Z,72.2
2017-07-06T00:19:49.713Z,72.39
2017-07-06T00:20:49.752Z,72.43
2017-07-06T00:21:49.793Z,72.43
2017-07-06T00:22:49.827Z,73.35
2017-07-06T00:23:49.869Z,73.2
2017-07-06T00:24:49.906Z,73.35
2017-07-06T00:25:49.944Z,73.07
2017-07-06T00:26:49.984Z,73.16
2017-07-06T00:27:50.026Z,73.65
2017-07-06T00:28:50.063Z,72.97
2017-07-06T00:29:50.102Z,73.1
2017-07-06T00:30:50.141Z,72.88
2017-07-06T00:31:50.177Z,73.45
2017-07-06T00:32:50.219Z,73.65
2017-07-06T00:33:50.255Z,73.07
2017-07-06T00:34:50.295Z,73.39
2017-07-06T00:35:50.334Z,73.07
2017-07-06T00:36:50.373Z,73.97
2017-07-06T00:37:50.416Z,73.65
2017-07-06T00:38:50.450Z,73.55
2017-07-06T00:39:50.490Z,73.65
2017-07-06T00:40:50.527Z,73.74
2017-07-06T00:41:50.568Z,73.74
2017-07-06T00:42:50.606Z,73.65
2017-07-06T00:43:50.646Z,73.65
2017-07-06T00:44:50.681Z,73.55
2017-07-06T00:45:50.721Z,73.55
2017-07-06T00:46:50.760Z,73.45
2017-07-06T00:47:50.801Z,73.65
2017-07-06T00:48:50.836Z,73.45
2017-07-06T00:49:50.885Z,73.26
2017-07-06T00:50:50.914Z,73.26
2017-07-06T00:51:50.952Z,73.26
2017-07-06T00:52:50.992Z,73.26
2017-07-06T00:53:51.032Z,73.26
2017-07-06T00:54:51.071Z,73.35
2017-07-06T00:55:51.106Z,73.26
2017-07-06T00:56:51.147Z,73.45
2017-07-06T00:57:51.186Z,73.74
2017-07-06T00:58:51.221Z,73.74
2017-07-06T00:59:51.262Z,74.02
2017-07-06T01:00:51.302Z,74.02
2017-07-06T01:01:51.341Z,74.12
2017-07-06T01:02:51.378Z,74.02
2017-07-06T01:03:51.418Z,74.02
2017-07-06T01:04:51.457Z,74.02
2017-07-06T01:05:51.498Z,74.12
2017-07-06T01:06:51.532Z,73.8
2017-07-06T01:07:51.572Z,73.8
2017-07-06T01:08:51.611Z,73.7
2017-07-06T01:09:51.649Z,73.74
2017-07-06T01:10:51.688Z,73.8
2017-07-06T01:11:51.727Z,73.9
2017-07-06T01:12:51.764Z,73.7
2017-07-06T01:13:51.806Z,73.9
2017-07-06T01:14:51.842Z,74.37
2017-07-06T01:15:51.883Z,74.57
2017-07-06T01:16:51.919Z,74.27
2017-07-06T01:17:51.956Z,74.22
2017-07-06T01:18:51.998Z,74.47
2017-07-06T01:19:52.036Z,74.27
2017-07-06T01:20:52.074Z,74.47
2017-07-06T01:21:52.111Z,74.66
2017-07-06T01:22:52.150Z,74.22
2017-07-06T01:23:52.190Z,74.6
2017-07-06T01:24:52.228Z,74.08
2017-07-06T01:25:52.268Z,74.47
2017-07-06T01:26:52.306Z,74.27
2017-07-06T01:27:52.345Z,74.51
2017-07-06T01:28:52.383Z,75.04
2017-07-06T01:29:52.422Z,74.76
2017-07-06T01:30:52.459Z,74.66
2017-07-06T01:31:52.497Z,74.6
2017-07-06T01:32:52.538Z,74.76
2017-07-06T01:33:52.574Z,74.66
2017-07-06T01:34:52.615Z,75.14
2017-07-06T01:35:52.652Z,74.85
2017-07-06T01:36:52.690Z,75.04
2017-07-06T01:37:52.730Z,75.14
2017-07-06T01:38:52.769Z,75.04
2017-07-06T01:39:52.807Z,74.95
2017-07-06T01:40:52.846Z,75.04
2017-07-06T01:41:52.882Z,75.04
2017-07-06T01:42:52.922Z,75.43
2017-07-06T01:43:52.959Z,75.43
2017-07-06T01:44:52.999Z,75.14
2017-07-06T01:45:53.035Z,75.23
2017-07-06T01:46:53.076Z,75.14
2017-07-06T01:47:53.113Z,75.23
2017-07-06T01:48:53.154Z,75.43
2017-07-06T01:49:53.191Z,75.43
2017-07-06T01:50:53.229Z,75.43
2017-07-06T01:51:53.268Z,75.23
2017-07-06T01:52:53.308Z,75.23
2017-07-06T01:53:53.345Z,75.33
2017-07-06T01:54:53.385Z,75.04
2017-07-06T01:55:53.422Z,75.52
2017-07-06T01:56:53.463Z,75.43
2017-07-06T01:57:53.498Z,75.23
2017-07-06T01:58:53.539Z,75.43
2017-07-06T01:59:53.578Z,75.14
2017-07-06T02:00:53.615Z,75.04
2017-07-06T02:01:53.655Z,75.14
2017-07-06T02:02:53.692Z,75.52
2017-07-06T02:03:53.732Z,75.52
2017-07-06T02:04:53.770Z,75.04
2017-07-06T02:05:53.810Z,75.43
2017-07-06T02:06:53.846Z,75.52
2017-07-06T02:07:53.884Z,75.23
2017-07-06T02:08:53.925Z,75.2
2017-07-06T02:09:53.962Z,75.81
2017-07-06T02:10:54.002Z,75.39
2017-07-06T02:11:54.037Z,74.95
2017-07-06T02:12:54.079Z,75.62
2017-07-06T02:13:54.116Z,75.71
2017-07-06T02:14:54.154Z,75.81
2017-07-06T02:15:54.193Z,75.52
2017-07-06T02:16:54.232Z,75.52
2017-07-06T02:17:54.271Z,75.52
2017-07-06T02:18:54.308Z,75.39
2017-07-06T02:19:54.348Z,75.87
2017-07-06T02:20:54.384Z,75.48
2017-07-06T02:21:54.423Z,75.68
2017-07-06T02:22:54.458Z,75.29
2017-07-06T02:23:54.499Z,75.68
2017-07-06T02:24:54.540Z,75.71
2017-07-06T02:25:54.575Z,75.87
2017-07-06T02:26:54.615Z,75.68
2017-07-06T02:27:54.654Z,75.58
2017-07-06T02:28:54.692Z,75.71
2017-07-06T02:29:54.730Z,76.19
2017-07-06T02:30:54.768Z,75.58
2017-07-06T02:31:54.806Z,75.48
2017-07-06T02:32:54.847Z,75.52
2017-07-06T02:33:54.884Z,75.62
2017-07-06T02:34:54.920Z,75.71
2017-07-06T02:35:54.961Z,75.68
2017-07-06T02:36:54.999Z,75.62
2017-07-06T02:37:55.036Z,76
2017-07-06T02:38:55.076Z,75.81
2017-07-06T02:39:55.114Z,75.81
2017-07-06T02:40:55.154Z,76
2017-07-06T02:41:55.191Z,76.15
2017-07-06T02:42:55.230Z,75.87
2017-07-06T02:43:55.268Z,76.06
2017-07-06T02:44:55.305Z,76.06
2017-07-06T02:45:55.346Z,76.15
2017-07-06T02:46:55.384Z,75.87
2017-07-06T02:47:55.421Z,75.87
2017-07-06T02:48:55.462Z,76.25
2017-07-06T02:49:55.498Z,75.87
2017-07-06T02:50:55.535Z,76.15
2017-07-06T02:51:55.574Z,76.44
2017-07-06T02:52:55.611Z,76.15
2017-07-06T02:53:55.650Z,76.44
2017-07-06T02:54:55.692Z,76.82
2017-07-06T02:55:55.737Z,76.44
2017-07-06T02:56:55.766Z,76.54
2017-07-06T02:57:55.805Z,76.44
2017-07-06T02:58:55.842Z,76.06
2017-07-06T02:59:55.880Z,77.21
2017-07-06T03:00:55.918Z,77.02
2017-07-06T03:01:55.957Z,76.82
2017-07-06T03:02:55.996Z,76.64
2017-07-06T03:03:56.035Z,76.82
2017-07-06T03:04:56.071Z,77.11
2017-07-06T03:05:56.110Z,77.31
2017-07-06T03:06:56.148Z,77.21
2017-07-06T03:07:56.185Z,76.92
2017-07-06T03:08:56.225Z,77.11
2017-07-06T03:09:56.263Z,77.4
2017-07-06T03:10:56.302Z,77.31
2017-07-06T03:11:56.341Z,77.11
2017-07-06T03:12:56.378Z,77.21
2017-07-06T03:13:56.424Z,77.11
2017-07-06T03:14:56.455Z,77.31
2017-07-06T03:15:56.493Z,77.11
2017-07-06T03:16:56.531Z,77.11
2017-07-06T03:17:56.568Z,77.31
2017-07-06T03:18:56.608Z,77.5
2017-07-06T03:19:56.646Z,77.31
2017-07-06T03:20:56.685Z,77.78
2017-07-06T03:21:56.721Z,77.5
2017-07-06T03:22:56.761Z,77.59
2017-07-06T03:23:56.799Z,77.78
2017-07-06T03:24:56.839Z,77.78
2017-07-06T03:25:56.877Z,77.78
2017-07-06T03:26:56.914Z,77.78
2017-07-06T03:27:56.953Z,77.73
2017-07-06T03:28:56.989Z,77.06
2017-07-06T03:29:57.028Z,77.59
2017-07-06T03:30:57.069Z,77.15
2017-07-06T03:31:57.107Z,77.06
2017-07-06T03:32:57.145Z,77.31
2017-07-06T03:33:57.183Z,77.15
2017-07-06T03:34:57.224Z,77.5
2017-07-06T03:35:57.261Z,77.15
2017-07-06T03:36:57.299Z,77.15
2017-07-06T03:37:57.339Z,77.44
2017-07-06T03:38:57.377Z,77.63
2017-07-06T03:39:57.414Z,77.73
2017-07-06T03:40:57.453Z,77.25
2017-07-06T03:41:57.491Z,77.25
2017-07-06T03:42:57.530Z,77.82
2017-07-06T03:43:57.568Z,77.63
2017-07-06T03:44:57.607Z,78.25
2017-07-06T03:45:57.646Z,78.05
2017-07-06T03:46:57.685Z,77.58
2017-07-06T03:47:57.722Z,77.67
2017-07-06T03:48:57.762Z,77.33
2017-07-06T03:49:57.801Z,76.56
2017-07-06T03:50:57.839Z,77.04
2017-07-06T03:51:57.878Z,76.65
2017-07-06T03:52:57.916Z,76.94
2017-07-06T03:53:57.956Z,76.75
2017-07-06T03:54:57.994Z,76.31
2017-07-06T03:55:58.034Z,75.63
2017-07-06T03:56:58.073Z,75.06
2017-07-06T03:57:58.111Z,74.68
2017-07-06T03:58:58.210Z,74.77
2017-07-06T03:59:58.191Z,74.77
2017-07-06T04:00:58.228Z,74.77
2017-07-06T04:01:58.266Z,75.25
2017-07-06T04:02:58.307Z,75.35
2017-07-06T04:03:58.344Z,75.82
2017-07-06T04:04:58.382Z,75.35
2017-07-06T04:05:58.422Z,75.38
2017-07-06T04:06:58.462Z,74.85
2017-07-06T04:07:58.501Z,74.27
2017-07-06T04:08:58.538Z,74.02
2017-07-06T04:09:58.580Z,73.28
2017-07-06T04:10:58.620Z,72.52
2017-07-06T04:11:58.659Z,71.88
2017-07-06T04:12:58.699Z,70.47
2017-07-06T04:13:58.740Z,69.12
2017-07-06T04:14:58.778Z,69.15
2017-07-06T04:15:58.819Z,68.77
2017-07-06T04:16:58.860Z,68.42
2017-07-06T04:17:58.901Z,67.65
2017-07-06T04:18:58.941Z,67.84
2017-07-06T04:19:58.978Z,67.3
2017-07-06T04:20:59.018Z,66.91
2017-07-06T04:21:59.058Z,66.56
2017-07-06T04:22:59.104Z,65.88
2017-07-06T04:23:59.142Z,65.72
2017-07-06T04:24:59.497Z,65.53
2017-07-06T04:25:59.224Z,64.59
2017-07-06T04:26:59.265Z,63.92
2017-07-06T04:27:59.305Z,63.28
2017-07-06T04:28:59.347Z,62.7
2017-07-06T04:29:59.389Z,61.76
2017-07-06T04:30:59.430Z,61.76
2017-07-06T04:31:59.472Z,60.72
2017-07-06T04:32:59.517Z,60.44
2017-07-06T04:33:59.555Z,58.98
2017-07-06T04:34:59.598Z,58.44
2017-07-06T04:35:59.637Z,58.34
2017-07-06T04:36:59.679Z,58.44
2017-07-06T04:37:59.723Z,57.59
2017-07-06T04:38:59.765Z,57.43
2017-07-06T04:39:59.807Z,56.94
2017-07-06T04:40:59.851Z,55.98
2017-07-06T04:41:59.891Z,55.52
2017-07-06T04:42:59.935Z,54.19
2017-07-06T04:43:59.978Z,53.8
2017-07-06T04:45:00.023Z,53.39
2017-07-06T04:46:00.061Z,53.17
2017-07-06T04:47:00.105Z,53.36
2017-07-06T04:48:00.145Z,54.01
2017-07-06T04:49:00.190Z,55.05
2017-07-06T04:50:00.232Z,55.24
2017-07-06T04:51:00.274Z,54.57
2017-07-06T04:52:00.315Z,53.63
2017-07-06T04:53:00.357Z,53.5
2017-07-06T04:54:00.402Z,53.99
2017-07-06T04:55:00.441Z,54.59
2017-07-06T04:56:00.484Z,54.3
2017-07-06T04:57:00.526Z,53.65
2017-07-06T04:58:00.570Z,53.49
2017-07-06T04:59:00.613Z,52.42
2017-07-06T05:00:00.655Z,51.9
2017-07-06T05:01:00.695Z,51.9
2017-07-06T05:02:00.740Z,51.98
2017-07-06T05:03:00.782Z,52.44
2017-07-06T05:04:00.826Z,52.51
2017-07-06T05:05:00.868Z,52.7
2017-07-06T05:06:00.912Z,52.48
2017-07-06T05:07:00.954Z,52.45
2017-07-06T05:08:00.998Z,53.13
2017-07-06T05:09:01.042Z,53.01
2017-07-06T05:10:01.082Z,53.69
2017-07-06T05:11:01.123Z,54.36
2017-07-06T05:12:01.164Z,54.29
2017-07-06T05:13:01.210Z,53.83
2017-07-06T05:14:01.256Z,53.35
2017-07-06T05:15:01.292Z,53.55
2017-07-06T05:16:01.333Z,53.23
2017-07-06T05:17:01.377Z,53.42
2017-07-06T05:18:01.420Z,53.52
2017-07-06T05:19:01.459Z,54.49
2017-07-06T05:20:01.502Z,54.49
2017-07-06T05:21:01.542Z,54.49
2017-07-06T05:22:01.585Z,53.81
2017-07-06T05:23:01.641Z,54
2017-07-06T05:24:01.671Z,53.81
2017-07-06T05:25:01.710Z,54.27
2017-07-06T05:26:01.754Z,54.75
2017-07-06T05:27:01.793Z,54.55
2017-07-06T05:28:01.839Z,54.43
2017-07-06T05:29:01.879Z,55.1
2017-07-06T05:30:01.920Z,55.59
2017-07-06T05:31:01.959Z,55.4
2017-07-06T05:32:02.000Z,55.2
2017-07-06T05:33:02.040Z,54.98
2017-07-06T05:34:02.085Z,56.24
2017-07-06T05:35:02.124Z,55.76
2017-07-06T05:36:02.167Z,55.66
2017-07-06T05:37:02.207Z,56.14
2017-07-06T05:38:02.250Z,56.04
2017-07-06T05:39:02.293Z,56.33
2017-07-06T05:40:02.332Z,56.14
2017-07-06T05:41:02.377Z,56.62
2017-07-06T05:42:02.413Z,56.43
2017-07-06T05:43:02.456Z,56.91
2017-07-06T05:44:02.498Z,57.2
2017-07-06T05:45:02.540Z,58.39
2017-07-06T05:46:02.590Z,58.42
2017-07-06T05:47:02.624Z,58.64
2017-07-06T05:48:02.665Z,58.14
2017-07-06T05:49:02.711Z,56.36
2017-07-06T05:50:02.753Z,55.16
2017-07-06T05:51:02.797Z,53
2017-07-06T05:52:02.839Z,51.87
2017-07-06T05:53:02.886Z,50.53
2017-07-06T05:54:02.929Z,50.34
2017-07-06T05:55:02.972Z,50.34
2017-07-06T05:56:03.018Z,50.04
2017-07-06T05:57:03.065Z,50.63
2017-07-06T05:58:03.107Z,49.87
2017-07-06T05:59:03.154Z,49.61
2017-07-06T06:00:03.196Z,48.56
2017-07-06T06:01:03.243Z,47.25
2017-07-06T06:02:03.287Z,46.78
2017-07-06T06:03:03.334Z,45.56
2017-07-06T06:04:03.380Z,43.24
2017-07-06T06:05:03.428Z,42.68
2017-07-06T06:06:03.475Z,42.68
2017-07-06T06:07:03.518Z,42.68
2017-07-06T06:08:03.564Z,42.38
2017-07-06T06:09:03.614Z,41.42
2017-07-06T06:10:03.704Z,40.94
2017-07-06T06:11:04.079Z,41.23
2017-07-06T06:12:03.752Z,40.63
2017-07-06T06:13:03.799Z,40.14
2017-07-06T06:14:03.845Z,40.23
2017-07-06T06:15:03.892Z,40.31
2017-07-06T06:16:03.940Z,39.92
2017-07-06T06:17:03.990Z,39.33
2017-07-06T06:18:04.040Z,39.9
2017-07-06T06:19:04.081Z,40.09
2017-07-06T06:20:04.128Z,40.01
2017-07-06T06:21:04.176Z,39.55
2017-07-06T06:22:04.222Z,39.1
2017-07-06T06:23:04.274Z,37.47
2017-07-06T06:24:04.319Z,36.79
2017-07-06T06:25:04.366Z,36.8
2017-07-06T06:26:04.424Z,36.33
2017-07-06T06:27:04.465Z,36.45
2017-07-06T06:28:04.511Z,35.88
2017-07-06T06:29:04.562Z,34.92
2017-07-06T06:30:04.611Z,34.34
2017-07-06T06:31:04.660Z,33.97
2017-07-06T06:32:04.711Z,34.08
2017-07-06T06:33:04.764Z,33.59
2017-07-06T06:34:04.811Z,33.51
2017-07-06T06:35:04.859Z,32.34
2017-07-06T06:36:04.910Z,31.95
2017-07-06T06:37:04.962Z,32.74
2017-07-06T06:38:05.013Z,31.76
2017-07-06T06:39:05.060Z,30.49
2017-07-06T06:40:05.134Z,29.89
2017-07-06T06:41:05.167Z,29.97
2017-07-06T06:42:05.212Z,30.43
2017-07-06T06:43:05.264Z,30.62
2017-07-06T06:44:05.315Z,30.5
2017-07-06T06:45:05.361Z,30.58
2017-07-06T06:46:05.420Z,30.57
2017-07-06T06:47:05.509Z,30.87
2017-07-06T06:48:05.515Z,31.24
2017-07-06T06:49:05.570Z,31.04
2017-07-06T06:50:05.609Z,31.04
2017-07-06T06:51:05.659Z,31.23
2017-07-06T06:52:05.709Z,31.8
2017-07-06T06:53:05.757Z,32.48
2017-07-06T06:54:05.823Z,32.58
2017-07-06T06:55:05.856Z,32.12
2017-07-06T06:56:05.903Z,31.55
2017-07-06T06:57:05.960Z,31.74
2017-07-06T06:58:06.004Z,31.57
2017-07-06T06:59:06.063Z,31.01
2017-07-06T07:00:06.107Z,30.82
2017-07-06T07:01:06.152Z,30.15
2017-07-06T07:02:06.203Z,30.27
2017-07-06T07:03:06.255Z,29.87
2017-07-06T07:04:06.303Z,29
2017-07-06T07:05:06.356Z,29.31
2017-07-06T07:06:06.405Z,28.75
2017-07-06T07:07:06.456Z,27.28
2017-07-06T07:08:06.512Z,26.51
2017-07-06T07:09:06.561Z,26.43
2017-07-06T07:10:06.614Z,25.37
2017-07-06T07:11:06.669Z,25.19
2017-07-06T07:12:06.717Z,24.69
2017-07-06T07:13:06.773Z,24.61
2017-07-06T07:14:06.827Z,23.73
2017-07-06T07:15:06.880Z,23.55
2017-07-06T07:16:06.931Z,23.26
2017-07-06T07:17:06.988Z,23.07
2017-07-06T07:18:07.041Z,22.29
2017-07-06T07:19:07.094Z,22
2017-07-06T07:20:07.150Z,21.81
2017-07-06T07:21:07.202Z,21.41
2017-07-06T07:22:07.256Z,20.92
2017-07-06T07:23:07.311Z,20.53
2017-07-06T07:24:07.367Z,20.23
2017-07-06T07:25:07.423Z,19.62
2017-07-06T07:26:07.478Z,20.02
2017-07-06T07:27:07.532Z,19.73
2017-07-06T07:28:07.587Z,19.82
2017-07-06T07:29:07.642Z,19.62
2017-07-06T07:30:07.697Z,19.71
2017-07-06T07:31:07.751Z,19.31
2017-07-06T07:32:07.805Z,19.49
2017-07-06T07:33:07.859Z,19.67
2017-07-06T07:34:07.911Z,20.04
2017-07-06T07:35:07.967Z,20.52
2017-07-06T07:36:08.019Z,20.6
2017-07-06T07:37:08.073Z,21.08
2017-07-06T07:38:08.124Z,21.75
2017-07-06T07:39:08.177Z,21.15
2017-07-06T07:40:08.236Z,22.13
2017-07-06T07:41:08.281Z,21.92
2017-07-06T07:42:08.331Z,22.12
2017-07-06T07:43:08.383Z,22.41
2017-07-06T07:44:08.438Z,22.89
2017-07-06T07:45:08.489Z,22.98
2017-07-06T07:46:08.538Z,22.98
2017-07-06T07:47:08.591Z,23.57
2017-07-06T07:48:08.644Z,23.27
2017-07-06T07:49:08.692Z,24.05
2017-07-06T07:50:08.745Z,23.74
2017-07-06T07:51:08.796Z,24.24
2017-07-06T07:52:08.846Z,24.54
2017-07-06T07:53:08.898Z,24.65
2017-07-06T07:54:09.268Z,24.37
2017-07-06T07:55:09.003Z,23
2017-07-06T07:56:09.052Z,23.02
2017-07-06T07:57:09.106Z,23.24
2017-07-06T07:58:09.160Z,23.05
2017-07-06T07:59:09.213Z,22.86
2017-07-06T08:00:09.266Z,22.19
2017-07-06T08:01:10.162Z,21.92
2017-07-06T08:02:09.375Z,21.35
2017-07-06T08:03:10.798Z,20.57
2017-07-06T08:04:10.509Z,20.37
2017-07-06T08:05:09.537Z,19.68
2017-07-06T08:06:10.803Z,19.2
2017-07-06T08:07:09.646Z,19.4
2017-07-06T08:08:09.699Z,19.11
2017-07-06T08:09:09.754Z,19.42
2017-07-06T08:10:09.812Z,18.84
2017-07-06T08:11:09.867Z,17.35
2017-07-06T08:12:09.922Z,17.46
2017-07-06T08:13:09.981Z,17.27
2017-07-06T08:14:10.039Z,16.97
2017-07-06T08:15:10.091Z,16.68
2017-07-06T08:16:10.148Z,16.49
2017-07-06T08:17:10.206Z,15.9
2017-07-06T08:18:10.261Z,16.19
2017-07-06T08:19:10.320Z,16.09
2017-07-06T08:20:10.376Z,16
2017-07-06T08:21:10.441Z,15.61
2017-07-06T08:22:10.495Z,15.61
2017-07-06T08:23:10.549Z,15.51
2017-07-06T08:24:10.605Z,15.51
2017-07-06T08:25:10.661Z,15.41
2017-07-06T08:26:10.719Z,14.81
2017-07-06T08:27:10.779Z,14.81
2017-07-06T08:28:10.836Z,14.81
2017-07-06T08:29:10.891Z,14.8
2017-07-06T08:30:10.949Z,14.81
2017-07-06T08:31:11.006Z,14.61
2017-07-06T08:32:11.063Z,14.61
2017-07-06T08:33:11.123Z,14.61
2017-07-06T08:34:11.179Z,15.1
2017-07-06T08:35:11.234Z,15.3
2017-07-06T08:36:11.294Z,15.4
2017-07-06T08:37:11.349Z,15.4
2017-07-06T08:38:11.407Z,15.11
2017-07-06T08:39:11.465Z,15.1
2017-07-06T08:40:11.520Z,15.3
2017-07-06T08:41:11.579Z,15.4
2017-07-06T08:42:11.638Z,15.31
2017-07-06T08:43:11.695Z,15.11
2017-07-06T08:44:11.754Z,15.41
2017-07-06T08:45:11.811Z,14.91
2017-07-06T08:46:11.867Z,15.59
2017-07-06T08:47:11.924Z,15.79
2017-07-06T08:48:11.981Z,15.58
2017-07-06T08:49:12.038Z,15.97
2017-07-06T08:50:12.093Z,16.16
2017-07-06T08:51:12.151Z,15.86
2017-07-06T08:52:12.212Z,16.06
2017-07-06T08:53:12.581Z,15.95
2017-07-06T08:54:12.321Z,16.35
2017-07-06T08:55:12.378Z,16.25
2017-07-06T08:56:12.439Z,15.86
2017-07-06T08:57:12.492Z,16.16
2017-07-06T08:58:12.561Z,16.65
2017-07-06T08:59:12.604Z,16.95
2017-07-06T09:00:12.662Z,16.65
2017-07-06T09:01:13.763Z,16.75
2017-07-06T09:02:12.775Z,17.35
2017-07-06T09:03:12.833Z,17.06
2017-07-06T09:04:12.890Z,16.76
2017-07-06T09:05:12.947Z,16.66
2017-07-06T09:06:13.053Z,16.27
2017-07-06T09:07:13.061Z,15.97
2017-07-06T09:08:13.119Z,16.35
2017-07-06T09:09:13.176Z,16.64
2017-07-06T09:10:13.230Z,16.93
2017-07-06T09:11:13.290Z,17.12
2017-07-06T09:12:13.344Z,17.11
2017-07-06T09:13:13.398Z,17.6
2017-07-06T09:14:13.454Z,17.49
2017-07-06T09:15:13.508Z,18.17
2017-07-06T09:16:13.562Z,18.35
2017-07-06T09:17:13.617Z,18.83
2017-07-06T09:18:13.673Z,19.42
2017-07-06T09:19:13.728Z,19.32
2017-07-06T09:20:13.779Z,19.7
2017-07-06T09:21:13.837Z,19.5
2017-07-06T09:22:13.888Z,20.18
2017-07-06T09:23:13.941Z,20.57
2017-07-06T09:24:13.995Z,20.76
2017-07-06T09:25:14.049Z,21.06
2017-07-06T09:26:14.103Z,20.95
2017-07-06T09:27:14.155Z,20.76
2017-07-06T09:28:14.213Z,20.76
2017-07-06T09:29:14.265Z,20.87
2017-07-06T09:30:14.318Z,20.57
2017-07-06T09:31:14.373Z,21.46
2017-07-06T09:32:14.425Z,21.17
2017-07-06T09:33:14.481Z,21.37
2017-07-06T09:34:14.758Z,21.37
2017-07-06T09:35:14.588Z,21.29
2017-07-06T09:36:14.645Z,21
2017-07-06T09:37:14.699Z,20.9
2017-07-06T09:38:14.754Z,20.9
2017-07-06T09:39:14.808Z,20.8
2017-07-06T09:40:14.865Z,20.8
2017-07-06T09:41:14.920Z,20.6
2017-07-06T09:42:14.977Z,20.98
2017-07-06T09:43:15.030Z,20.98
2017-07-06T09:44:15.084Z,21.17
2017-07-06T09:45:15.138Z,21.25
2017-07-06T09:46:15.192Z,21.73
2017-07-06T09:47:15.358Z,22.12
2017-07-06T09:48:15.301Z,21.92
2017-07-06T09:49:15.354Z,22.12
2017-07-06T09:50:15.408Z,22.5
2017-07-06T09:51:15.461Z,23
2017-07-06T09:52:15.517Z,22.61
2017-07-06T09:53:15.570Z,22.41
2017-07-06T09:54:15.625Z,22.12
2017-07-06T09:55:15.679Z,22.02
2017-07-06T09:56:15.734Z,22.31
2017-07-06T09:57:15.788Z,22.81
2017-07-06T09:58:15.844Z,23
2017-07-06T09:59:15.902Z,23
2017-07-06T10:00:15.951Z,22.71
2017-07-06T10:01:16.005Z,22.81
2017-07-06T10:02:16.062Z,22.92
2017-07-06T10:03:16.117Z,23.21
2017-07-06T10:04:16.171Z,22.62
2017-07-06T10:05:16.227Z,22.52
2017-07-06T10:06:16.283Z,22.52
2017-07-06T10:07:16.337Z,22.99
2017-07-06T10:08:16.392Z,23.47
2017-07-06T10:09:16.449Z,23.28
2017-07-06T10:10:16.503Z,23.08
2017-07-06T10:11:16.560Z,23.19
2017-07-06T10:12:16.614Z,23.28
2017-07-06T10:13:16.671Z,23.77
2017-07-06T10:14:16.727Z,23.86
2017-07-06T10:15:16.781Z,23.88
2017-07-06T10:16:16.839Z,23.78
2017-07-06T10:17:16.893Z,23.68
2017-07-06T10:18:16.947Z,23.78
2017-07-06T10:19:17.004Z,23.4
2017-07-06T10:20:17.061Z,23.6
2017-07-06T10:21:17.116Z,23.78
2017-07-06T10:22:17.171Z,23.86
2017-07-06T10:23:17.228Z,23.96
2017-07-06T10:24:17.284Z,23.96
2017-07-06T10:25:17.340Z,23.77
2017-07-06T10:26:17.396Z,24.16
2017-07-06T10:27:17.774Z,23.77
2017-07-06T10:28:17.509Z,24.25
2017-07-06T10:29:17.564Z,24.43
2017-07-06T10:30:17.617Z,24.63
2017-07-06T10:31:17.675Z,24.73
2017-07-06T10:32:17.732Z,24.63
2017-07-06T10:33:17.786Z,24.73
2017-07-06T10:34:17.840Z,25.02
2017-07-06T10:35:17.899Z,25.22
2017-07-06T10:36:17.954Z,25.22
2017-07-06T10:37:18.009Z,25.22
2017-07-06T10:38:18.065Z,25.22
2017-07-06T10:39:18.124Z,25.51
2017-07-06T10:40:18.179Z,25.42
2017-07-06T10:41:18.236Z,25.32
2017-07-06T10:42:18.294Z,25.42
2017-07-06T10:43:18.348Z,25.32
2017-07-06T10:44:18.408Z,24.82
2017-07-06T10:45:18.466Z,24.92
2017-07-06T10:46:18.522Z,24.91
2017-07-06T10:47:18.579Z,25.21
2017-07-06T10:48:18.636Z,25.01
2017-07-06T10:49:18.692Z,25.01
2017-07-06T10:50:18.753Z,25.29
2017-07-06T10:51:18.813Z,25.39
2017-07-06T10:52:18.869Z,25.96
2017-07-06T10:53:18.925Z,25.48
2017-07-06T10:54:18.985Z,25.96
2017-07-06T10:55:19.041Z,25.67
2017-07-06T10:56:19.102Z,25.38
2017-07-06T10:57:19.159Z,25.67
2017-07-06T10:58:19.216Z,25.67
2017-07-06T10:59:19.273Z,25.48
2017-07-06T11:00:19.330Z,25.48
2017-07-06T11:01:19.389Z,25.85
2017-07-06T11:02:19.443Z,25.95
2017-07-06T11:03:19.501Z,26.15
2017-07-06T11:04:19.556Z,25.94
2017-07-06T11:05:19.612Z,25.84
2017-07-06T11:06:19.667Z,25.84
2017-07-06T11:07:19.729Z,25.65
2017-07-06T11:08:19.782Z,26.33
2017-07-06T11:09:19.836Z,26.23
2017-07-06T11:10:19.891Z,26.42
2017-07-06T11:11:19.947Z,26.61
2017-07-06T11:12:20.001Z,26.5
2017-07-06T11:13:20.056Z,26.51
2017-07-06T11:14:20.107Z,27.19
2017-07-06T11:15:20.160Z,27.48
2017-07-06T11:16:20.211Z,27.38
2017-07-06T11:17:20.270Z,27.19
2017-07-06T11:18:20.315Z,27.37
2017-07-06T11:19:20.369Z,27.27
2017-07-06T11:20:20.418Z,27.37
2017-07-06T11:21:20.467Z,27.26
2017-07-06T11:22:20.518Z,27.55
2017-07-06T11:23:20.565Z,27.64
2017-07-06T11:24:20.616Z,27.73
2017-07-06T11:25:20.981Z,27.93
2017-07-06T11:26:20.718Z,27.93
2017-07-06T11:27:21.149Z,28.01
2017-07-06T11:28:21.133Z,28.5
2017-07-06T11:29:20.863Z,28.3
2017-07-06T11:30:20.913Z,28.42
2017-07-06T11:31:20.961Z,28.69
2017-07-06T11:32:21.012Z,28.61
2017-07-06T11:33:21.060Z,28.81
2017-07-06T11:34:21.108Z,28.81
2017-07-06T11:35:21.164Z,28.91
2017-07-06T11:36:21.207Z,28.42
2017-07-06T11:37:21.256Z,28.81
2017-07-06T11:38:21.305Z,28.61
2017-07-06T11:39:21.353Z,28.81
2017-07-06T11:40:21.402Z,28.91
2017-07-06T11:41:21.450Z,29.39
2017-07-06T11:42:21.498Z,29.49
2017-07-06T11:43:21.546Z,30.27
2017-07-06T11:44:21.595Z,29.79
2017-07-06T11:45:21.644Z,29.59
2017-07-06T11:46:21.690Z,29.39
2017-07-06T11:47:21.740Z,30.16
2017-07-06T11:48:21.787Z,30.26
2017-07-06T11:49:21.842Z,30.06
2017-07-06T11:50:21.885Z,30.74
2017-07-06T11:51:21.933Z,30.74
2017-07-06T11:52:21.980Z,30.66
2017-07-06T11:53:22.027Z,30.86
2017-07-06T11:54:22.075Z,30.57
2017-07-06T11:55:22.129Z,29.98
2017-07-06T11:56:22.172Z,30.08
2017-07-06T11:57:22.220Z,29.98
2017-07-06T11:58:22.266Z,29.79
2017-07-06T11:59:22.317Z,29.59
2017-07-06T12:00:22.364Z,29.79
2017-07-06T12:01:22.412Z,29.96
2017-07-06T12:02:22.460Z,30.16
2017-07-06T12:03:22.563Z,30.35
2017-07-06T12:04:22.556Z,30.26
2017-07-06T12:05:22.603Z,30.65
2017-07-06T12:06:22.650Z,30.84
2017-07-06T12:07:22.698Z,30.55
2017-07-06T12:08:22.744Z,30.26
2017-07-06T12:09:22.791Z,30.73
2017-07-06T12:10:22.840Z,30.15
2017-07-06T12:11:22.888Z,30.63
2017-07-06T12:12:22.936Z,30.73
2017-07-06T12:13:22.983Z,30.83
2017-07-06T12:14:23.030Z,31.12
2017-07-06T12:15:23.077Z,31.02
2017-07-06T12:16:23.124Z,30.83
2017-07-06T12:17:23.174Z,30.73
2017-07-06T12:18:23.221Z,30.63
2017-07-06T12:19:23.268Z,30.93
2017-07-06T12:20:23.316Z,30.54
2017-07-06T12:21:23.362Z,30.73
2017-07-06T12:22:23.411Z,30.15
2017-07-06T12:23:23.458Z,30.54
2017-07-06T12:24:23.503Z,30.83
2017-07-06T12:25:23.551Z,30.73
2017-07-06T12:26:23.599Z,30.73
2017-07-06T12:27:23.655Z,30.44
2017-07-06T12:28:23.695Z,30.44
2017-07-06T12:29:23.741Z,30.22
2017-07-06T12:30:23.788Z,30.83
2017-07-06T12:31:23.837Z,30.42
2017-07-06T12:32:23.882Z,30.71
2017-07-06T12:33:23.931Z,30.73
2017-07-06T12:34:23.977Z,30.91
2017-07-06T12:35:24.024Z,31.02
2017-07-06T12:36:24.071Z,30.93
2017-07-06T12:37:24.120Z,31.01
2017-07-06T12:38:24.165Z,31.1
2017-07-06T12:39:24.213Z,30.91
2017-07-06T12:40:24.260Z,31.1
2017-07-06T12:41:24.305Z,31.3
2017-07-06T12:42:24.383Z,31.1
2017-07-06T12:43:24.401Z,31.3
2017-07-06T12:44:24.448Z,31.3
2017-07-06T12:45:24.493Z,31.2
2017-07-06T12:46:24.539Z,31.28
2017-07-06T12:47:24.589Z,31.69
2017-07-06T12:48:24.633Z,31.96
2017-07-06T12:49:24.681Z,32.06
2017-07-06T12:50:24.725Z,32.16
2017-07-06T12:51:24.774Z,32.16
2017-07-06T12:52:24.822Z,32.35
2017-07-06T12:53:24.866Z,32.45
2017-07-06T12:54:24.915Z,32.75
2017-07-06T12:55:24.962Z,32.75
2017-07-06T12:56:25.007Z,32.75
2017-07-06T12:57:25.059Z,32.55